sensor_id;sensor_type;location;lat;lon;timestamp;P1;durP1;ratioP1;P2;durP2;ratioP2
23175;SDS011;19910;42.652;23.332;2022-08-21T00:01:40;11.93;;;6.75;;
23175;SDS011;19910;42.652;23.332;2022-08-21T00:04:07;17.45;;;8.10;;
23175;SDS011;19910;42.652;23.332;2022-08-21T00:06:35;14.55;;;6.97;;
23175;SDS011;19910;42.652;23.332;2022-08-21T00:09:05;19.95;;;7.07;;
23175;SDS011;19910;42.652;23.332;2022-08-21T00:11:34;17.45;;;6.95;;
23175;SDS011;19910;42.652;23.332;2022-08-21T00:14:02;19.63;;;8.23;;
23175;SDS011;19910;42.652;23.332;2022-08-21T00:16:31;15.93;;;7.60;;
23175;SDS011;19910;42.652;23.332;2022-08-21T00:18:58;13.82;;;7.28;;
23175;SDS011;19910;42.652;23.332;2022-08-21T00:21:25;13.88;;;7.70;;
23175;SDS011;19910;42.652;23.332;2022-08-21T00:23:52;19.67;;;8.32;;
23175;SDS011;19910;42.652;23.332;2022-08-21T00:26:20;15.90;;;8.13;;
23175;SDS011;19910;42.652;23.332;2022-08-21T00:28:47;17.52;;;7.75;;
23175;SDS011;19910;42.652;23.332;2022-08-21T00:31:14;19.08;;;8.55;;
23175;SDS011;19910;42.652;23.332;2022-08-21T00:33:42;18.50;;;8.68;;
23175;SDS011;19910;42.652;23.332;2022-08-21T00:36:09;16.67;;;7.95;;
23175;SDS011;19910;42.652;23.332;2022-08-21T00:38:36;17.33;;;7.70;;
23175;SDS011;19910;42.652;23.332;2022-08-21T00:41:04;19.48;;;8.45;;
23175;SDS011;19910;42.652;23.332;2022-08-21T00:43:36;17.08;;;7.70;;
23175;SDS011;19910;42.652;23.332;2022-08-21T00:46:05;16.92;;;7.88;;
23175;SDS011;19910;42.652;23.332;2022-08-21T00:48:33;21.95;;;7.80;;
23175;SDS011;19910;42.652;23.332;2022-08-21T00:51:02;16.85;;;7.95;;
23175;SDS011;19910;42.652;23.332;2022-08-21T00:53:32;18.55;;;7.82;;
23175;SDS011;19910;42.652;23.332;2022-08-21T00:56:02;14.45;;;7.57;;
23175;SDS011;19910;42.652;23.332;2022-08-21T00:58:31;15.50;;;7.00;;
23175;SDS011;19910;42.652;23.332;2022-08-21T01:01:03;20.30;;;7.80;;
23175;SDS011;19910;42.652;23.332;2022-08-21T01:03:32;17.65;;;7.82;;
23175;SDS011;19910;42.652;23.332;2022-08-21T01:05:59;18.50;;;8.30;;
23175;SDS011;19910;42.652;23.332;2022-08-21T01:08:27;16.35;;;7.68;;
23175;SDS011;19910;42.652;23.332;2022-08-21T01:10:55;16.13;;;7.97;;
23175;SDS011;19910;42.652;23.332;2022-08-21T01:13:24;15.43;;;7.53;;
23175;SDS011;19910;42.652;23.332;2022-08-21T01:15:53;15.75;;;7.07;;
23175;SDS011;19910;42.652;23.332;2022-08-21T01:18:23;15.00;;;7.68;;
23175;SDS011;19910;42.652;23.332;2022-08-21T01:23:39;18.15;;;8.07;;
23175;SDS011;19910;42.652;23.332;2022-08-21T01:26:07;13.65;;;7.40;;
23175;SDS011;19910;42.652;23.332;2022-08-21T01:28:37;15.73;;;7.47;;
23175;SDS011;19910;42.652;23.332;2022-08-21T01:31:08;14.73;;;6.72;;
23175;SDS011;19910;42.652;23.332;2022-08-21T01:33:38;12.70;;;6.15;;
23175;SDS011;19910;42.652;23.332;2022-08-21T01:36:06;14.15;;;6.97;;
23175;SDS011;19910;42.652;23.332;2022-08-21T01:38:34;10.07;;;4.38;;
23175;SDS011;19910;42.652;23.332;2022-08-21T01:41:01;10.80;;;4.30;;
23175;SDS011;19910;42.652;23.332;2022-08-21T01:43:28;10.43;;;4.35;;
23175;SDS011;19910;42.652;23.332;2022-08-21T01:45:55;9.00;;;4.03;;
23175;SDS011;19910;42.652;23.332;2022-08-21T01:48:22;7.18;;;3.53;;
23175;SDS011;19910;42.652;23.332;2022-08-21T01:50:49;5.88;;;3.38;;
23175;SDS011;19910;42.652;23.332;2022-08-21T01:53:16;6.32;;;3.17;;
23175;SDS011;19910;42.652;23.332;2022-08-21T01:55:44;8.27;;;3.53;;
23175;SDS011;19910;42.652;23.332;2022-08-21T01:58:11;4.68;;;2.92;;
23175;SDS011;19910;42.652;23.332;2022-08-21T02:00:38;8.45;;;3.42;;
23175;SDS011;19910;42.652;23.332;2022-08-21T02:03:05;6.15;;;3.30;;
23175;SDS011;19910;42.652;23.332;2022-08-21T02:05:32;3.83;;;2.72;;
23175;SDS011;19910;42.652;23.332;2022-08-21T02:07:59;5.22;;;2.95;;
23175;SDS011;19910;42.652;23.332;2022-08-21T02:10:29;6.20;;;3.10;;
23175;SDS011;19910;42.652;23.332;2022-08-21T02:12:59;9.15;;;3.65;;
23175;SDS011;19910;42.652;23.332;2022-08-21T02:15:27;4.57;;;2.55;;
23175;SDS011;19910;42.652;23.332;2022-08-21T02:17:55;5.43;;;2.72;;
23175;SDS011;19910;42.652;23.332;2022-08-21T02:20:25;6.15;;;2.90;;
23175;SDS011;19910;42.652;23.332;2022-08-21T02:22:54;6.40;;;2.40;;
23175;SDS011;19910;42.652;23.332;2022-08-21T02:25:22;8.73;;;3.10;;
23175;SDS011;19910;42.652;23.332;2022-08-21T02:27:50;4.00;;;2.20;;
23175;SDS011;19910;42.652;23.332;2022-08-21T02:30:21;4.22;;;2.78;;
23175;SDS011;19910;42.652;23.332;2022-08-21T02:32:49;5.85;;;2.70;;
23175;SDS011;19910;42.652;23.332;2022-08-21T02:35:16;4.82;;;2.63;;
23175;SDS011;19910;42.652;23.332;2022-08-21T02:37:45;4.78;;;2.88;;
23175;SDS011;19910;42.652;23.332;2022-08-21T02:40:15;4.72;;;2.80;;
23175;SDS011;19910;42.652;23.332;2022-08-21T02:42:43;4.88;;;2.63;;
23175;SDS011;19910;42.652;23.332;2022-08-21T02:45:10;5.43;;;3.10;;
23175;SDS011;19910;42.652;23.332;2022-08-21T02:47:40;6.05;;;3.40;;
23175;SDS011;19910;42.652;23.332;2022-08-21T02:50:12;9.45;;;4.82;;
23175;SDS011;19910;42.652;23.332;2022-08-21T02:52:39;9.05;;;3.53;;
23175;SDS011;19910;42.652;23.332;2022-08-21T02:55:06;7.10;;;3.55;;
23175;SDS011;19910;42.652;23.332;2022-08-21T02:57:33;7.65;;;4.25;;
23175;SDS011;19910;42.652;23.332;2022-08-21T02:59:59;12.75;;;4.60;;
23175;SDS011;19910;42.652;23.332;2022-08-21T03:02:26;9.40;;;4.15;;
23175;SDS011;19910;42.652;23.332;2022-08-21T03:04:54;6.03;;;3.45;;
23175;SDS011;19910;42.652;23.332;2022-08-21T03:07:21;7.88;;;4.35;;
23175;SDS011;19910;42.652;23.332;2022-08-21T03:09:48;12.60;;;4.32;;
23175;SDS011;19910;42.652;23.332;2022-08-21T03:12:15;11.63;;;3.90;;
23175;SDS011;19910;42.652;23.332;2022-08-21T03:14:41;6.30;;;3.00;;
23175;SDS011;19910;42.652;23.332;2022-08-21T03:17:08;5.40;;;2.85;;
23175;SDS011;19910;42.652;23.332;2022-08-21T03:19:36;4.30;;;2.72;;
23175;SDS011;19910;42.652;23.332;2022-08-21T03:22:04;5.93;;;3.15;;
23175;SDS011;19910;42.652;23.332;2022-08-21T03:24:31;4.78;;;2.40;;
23175;SDS011;19910;42.652;23.332;2022-08-21T03:26:58;3.55;;;2.30;;
23175;SDS011;19910;42.652;23.332;2022-08-21T03:29:25;4.43;;;2.45;;
23175;SDS011;19910;42.652;23.332;2022-08-21T03:31:52;4.95;;;2.00;;
23175;SDS011;19910;42.652;23.332;2022-08-21T03:34:19;4.72;;;1.92;;
23175;SDS011;19910;42.652;23.332;2022-08-21T03:36:46;8.02;;;2.42;;
23175;SDS011;19910;42.652;23.332;2022-08-21T03:39:15;4.50;;;2.53;;
23175;SDS011;19910;42.652;23.332;2022-08-21T03:41:42;5.70;;;2.88;;
23175;SDS011;19910;42.652;23.332;2022-08-21T03:44:09;4.63;;;3.08;;
23175;SDS011;19910;42.652;23.332;2022-08-21T03:46:36;5.93;;;2.88;;
23175;SDS011;19910;42.652;23.332;2022-08-21T03:49:05;5.75;;;2.83;;
23175;SDS011;19910;42.652;23.332;2022-08-21T03:51:32;4.90;;;2.88;;
23175;SDS011;19910;42.652;23.332;2022-08-21T03:54:00;8.88;;;3.38;;
23175;SDS011;19910;42.652;23.332;2022-08-21T03:56:28;5.15;;;3.08;;
23175;SDS011;19910;42.652;23.332;2022-08-21T03:58:55;5.32;;;3.17;;
23175;SDS011;19910;42.652;23.332;2022-08-21T04:01:23;4.95;;;3.08;;
23175;SDS011;19910;42.652;23.332;2022-08-21T04:03:50;7.05;;;4.05;;
23175;SDS011;19910;42.652;23.332;2022-08-21T04:06:17;5.55;;;3.15;;
23175;SDS011;19910;42.652;23.332;2022-08-21T04:08:44;6.95;;;2.90;;
23175;SDS011;19910;42.652;23.332;2022-08-21T04:11:10;4.47;;;2.50;;
23175;SDS011;19910;42.652;23.332;2022-08-21T04:13:39;4.65;;;2.70;;
23175;SDS011;19910;42.652;23.332;2022-08-21T04:16:06;6.75;;;2.97;;
23175;SDS011;19910;42.652;23.332;2022-08-21T04:18:33;4.60;;;2.63;;
23175;SDS011;19910;42.652;23.332;2022-08-21T04:21:00;8.30;;;3.72;;
23175;SDS011;19910;42.652;23.332;2022-08-21T04:23:28;8.05;;;2.97;;
23175;SDS011;19910;42.652;23.332;2022-08-21T04:25:56;6.18;;;3.33;;
23175;SDS011;19910;42.652;23.332;2022-08-21T04:28:24;6.60;;;3.42;;
23175;SDS011;19910;42.652;23.332;2022-08-21T04:30:54;6.47;;;3.58;;
23175;SDS011;19910;42.652;23.332;2022-08-21T04:33:22;7.85;;;4.13;;
23175;SDS011;19910;42.652;23.332;2022-08-21T04:35:49;9.93;;;4.15;;
23175;SDS011;19910;42.652;23.332;2022-08-21T04:38:16;5.20;;;3.38;;
23175;SDS011;19910;42.652;23.332;2022-08-21T04:40:44;9.02;;;4.15;;
23175;SDS011;19910;42.652;23.332;2022-08-21T04:43:11;8.23;;;3.67;;
23175;SDS011;19910;42.652;23.332;2022-08-21T04:45:39;7.70;;;3.88;;
23175;SDS011;19910;42.652;23.332;2022-08-21T04:48:09;5.47;;;3.13;;
23175;SDS011;19910;42.652;23.332;2022-08-21T04:50:39;7.82;;;4.10;;
23175;SDS011;19910;42.652;23.332;2022-08-21T04:53:10;4.97;;;2.83;;
23175;SDS011;19910;42.652;23.332;2022-08-21T04:55:41;12.27;;;4.18;;
23175;SDS011;19910;42.652;23.332;2022-08-21T04:58:10;10.27;;;4.47;;
23175;SDS011;19910;42.652;23.332;2022-08-21T05:00:38;8.13;;;3.72;;
23175;SDS011;19910;42.652;23.332;2022-08-21T05:03:06;9.00;;;4.85;;
23175;SDS011;19910;42.652;23.332;2022-08-21T05:05:37;9.02;;;4.53;;
23175;SDS011;19910;42.652;23.332;2022-08-21T05:08:06;11.60;;;3.90;;
23175;SDS011;19910;42.652;23.332;2022-08-21T05:10:35;4.90;;;2.90;;
23175;SDS011;19910;42.652;23.332;2022-08-21T05:13:02;6.82;;;3.95;;
23175;SDS011;19910;42.652;23.332;2022-08-21T05:15:29;5.60;;;3.33;;
23175;SDS011;19910;42.652;23.332;2022-08-21T05:17:57;4.82;;;2.75;;
23175;SDS011;19910;42.652;23.332;2022-08-21T05:20:25;6.30;;;3.53;;
23175;SDS011;19910;42.652;23.332;2022-08-21T05:22:52;5.72;;;3.58;;
23175;SDS011;19910;42.652;23.332;2022-08-21T05:25:19;4.78;;;3.10;;
23175;SDS011;19910;42.652;23.332;2022-08-21T05:27:46;5.57;;;3.53;;
23175;SDS011;19910;42.652;23.332;2022-08-21T05:30:12;7.43;;;3.10;;
23175;SDS011;19910;42.652;23.332;2022-08-21T05:32:39;4.65;;;3.75;;
23175;SDS011;19910;42.652;23.332;2022-08-21T05:35:07;7.38;;;4.00;;
23175;SDS011;19910;42.652;23.332;2022-08-21T05:37:35;7.47;;;4.15;;
23175;SDS011;19910;42.652;23.332;2022-08-21T05:40:02;5.25;;;4.05;;
23175;SDS011;19910;42.652;23.332;2022-08-21T05:42:30;7.88;;;3.90;;
23175;SDS011;19910;42.652;23.332;2022-08-21T05:44:57;8.82;;;3.95;;
23175;SDS011;19910;42.652;23.332;2022-08-21T05:47:24;6.40;;;3.63;;
23175;SDS011;19910;42.652;23.332;2022-08-21T05:49:51;6.75;;;3.72;;
23175;SDS011;19910;42.652;23.332;2022-08-21T05:52:18;4.90;;;4.05;;
23175;SDS011;19910;42.652;23.332;2022-08-21T05:54:47;6.13;;;3.90;;
23175;SDS011;19910;42.652;23.332;2022-08-21T05:57:14;6.22;;;3.70;;
23175;SDS011;19910;42.652;23.332;2022-08-21T05:59:40;7.22;;;4.00;;
23175;SDS011;19910;42.652;23.332;2022-08-21T06:02:07;5.45;;;3.22;;
23175;SDS011;19910;42.652;23.332;2022-08-21T06:04:35;5.43;;;3.78;;
23175;SDS011;19910;42.652;23.332;2022-08-21T06:07:02;5.35;;;3.58;;
23175;SDS011;19910;42.652;23.332;2022-08-21T06:09:29;6.20;;;4.10;;
23175;SDS011;19910;42.652;23.332;2022-08-21T06:11:57;6.72;;;4.68;;
23175;SDS011;19910;42.652;23.332;2022-08-21T06:14:24;4.93;;;3.92;;
23175;SDS011;19910;42.652;23.332;2022-08-21T06:16:51;6.78;;;4.70;;
23175;SDS011;19910;42.652;23.332;2022-08-21T06:19:18;6.10;;;4.07;;
23175;SDS011;19910;42.652;23.332;2022-08-21T06:21:45;8.25;;;3.90;;
23175;SDS011;19910;42.652;23.332;2022-08-21T06:24:11;5.78;;;4.07;;
23175;SDS011;19910;42.652;23.332;2022-08-21T06:26:38;4.65;;;3.85;;
23175;SDS011;19910;42.652;23.332;2022-08-21T06:29:07;7.22;;;4.32;;
23175;SDS011;19910;42.652;23.332;2022-08-21T06:31:36;5.72;;;4.00;;
23175;SDS011;19910;42.652;23.332;2022-08-21T06:34:02;7.03;;;4.70;;
23175;SDS011;19910;42.652;23.332;2022-08-21T06:36:29;7.47;;;4.60;;
23175;SDS011;19910;42.652;23.332;2022-08-21T06:38:56;9.15;;;4.00;;
23175;SDS011;19910;42.652;23.332;2022-08-21T06:41:23;8.20;;;4.60;;
23175;SDS011;19910;42.652;23.332;2022-08-21T06:43:50;5.97;;;4.30;;
23175;SDS011;19910;42.652;23.332;2022-08-21T06:46:18;8.50;;;4.57;;
23175;SDS011;19910;42.652;23.332;2022-08-21T06:48:45;6.22;;;4.30;;
23175;SDS011;19910;42.652;23.332;2022-08-21T06:51:12;9.02;;;4.15;;
23175;SDS011;19910;42.652;23.332;2022-08-21T06:53:39;5.75;;;4.45;;
23175;SDS011;19910;42.652;23.332;2022-08-21T06:56:05;11.18;;;6.75;;
23175;SDS011;19910;42.652;23.332;2022-08-21T06:58:33;7.25;;;3.67;;
23175;SDS011;19910;42.652;23.332;2022-08-21T07:01:00;6.70;;;3.40;;
23175;SDS011;19910;42.652;23.332;2022-08-21T07:03:29;5.00;;;3.40;;
23175;SDS011;19910;42.652;23.332;2022-08-21T07:05:57;6.43;;;3.20;;
23175;SDS011;19910;42.652;23.332;2022-08-21T07:08:24;7.63;;;3.67;;
23175;SDS011;19910;42.652;23.332;2022-08-21T07:10:52;8.40;;;4.55;;
23175;SDS011;19910;42.652;23.332;2022-08-21T07:13:20;9.35;;;4.45;;
23175;SDS011;19910;42.652;23.332;2022-08-21T07:15:47;6.25;;;4.50;;
23175;SDS011;19910;42.652;23.332;2022-08-21T07:18:14;7.93;;;3.63;;
23175;SDS011;19910;42.652;23.332;2022-08-21T07:20:43;18.67;;;4.53;;
23175;SDS011;19910;42.652;23.332;2022-08-21T07:23:11;5.90;;;3.20;;
23175;SDS011;19910;42.652;23.332;2022-08-21T07:25:44;5.85;;;4.07;;
23175;SDS011;19910;42.652;23.332;2022-08-21T07:28:11;8.65;;;4.85;;
23175;SDS011;19910;42.652;23.332;2022-08-21T07:30:38;6.00;;;3.75;;
23175;SDS011;19910;42.652;23.332;2022-08-21T07:33:05;3.92;;;3.03;;
23175;SDS011;19910;42.652;23.332;2022-08-21T07:35:32;7.93;;;3.75;;
23175;SDS011;19910;42.652;23.332;2022-08-21T07:38:00;8.60;;;4.10;;
23175;SDS011;19910;42.652;23.332;2022-08-21T07:40:27;7.63;;;4.90;;
23175;SDS011;19910;42.652;23.332;2022-08-21T07:42:53;8.57;;;5.13;;
23175;SDS011;19910;42.652;23.332;2022-08-21T07:45:21;6.95;;;3.45;;
23175;SDS011;19910;42.652;23.332;2022-08-21T07:47:49;6.10;;;3.92;;
23175;SDS011;19910;42.652;23.332;2022-08-21T07:50:17;7.20;;;4.25;;
23175;SDS011;19910;42.652;23.332;2022-08-21T07:52:44;7.55;;;4.38;;
23175;SDS011;19910;42.652;23.332;2022-08-21T07:55:14;8.82;;;4.30;;
23175;SDS011;19910;42.652;23.332;2022-08-21T07:57:42;5.97;;;3.83;;
23175;SDS011;19910;42.652;23.332;2022-08-21T08:00:11;8.07;;;4.47;;
23175;SDS011;19910;42.652;23.332;2022-08-21T08:02:43;8.40;;;4.97;;
23175;SDS011;19910;42.652;23.332;2022-08-21T08:05:14;7.20;;;4.95;;
23175;SDS011;19910;42.652;23.332;2022-08-21T08:07:42;9.40;;;5.05;;
23175;SDS011;19910;42.652;23.332;2022-08-21T08:10:09;9.07;;;5.10;;
23175;SDS011;19910;42.652;23.332;2022-08-21T08:12:39;9.43;;;4.03;;
23175;SDS011;19910;42.652;23.332;2022-08-21T08:15:08;8.40;;;5.32;;
23175;SDS011;19910;42.652;23.332;2022-08-21T08:17:36;7.50;;;4.75;;
23175;SDS011;19910;42.652;23.332;2022-08-21T08:20:03;9.90;;;5.15;;
23175;SDS011;19910;42.652;23.332;2022-08-21T08:22:32;7.65;;;4.47;;
23175;SDS011;19910;42.652;23.332;2022-08-21T08:25:00;6.40;;;4.68;;
23175;SDS011;19910;42.652;23.332;2022-08-21T08:27:27;9.75;;;4.60;;
23175;SDS011;19910;42.652;23.332;2022-08-21T08:29:56;6.65;;;4.30;;
23175;SDS011;19910;42.652;23.332;2022-08-21T08:32:23;10.23;;;6.28;;
23175;SDS011;19910;42.652;23.332;2022-08-21T08:34:50;10.73;;;6.93;;
23175;SDS011;19910;42.652;23.332;2022-08-21T08:37:17;10.50;;;6.28;;
23175;SDS011;19910;42.652;23.332;2022-08-21T08:39:45;10.65;;;6.25;;
23175;SDS011;19910;42.652;23.332;2022-08-21T08:42:15;11.25;;;6.25;;
23175;SDS011;19910;42.652;23.332;2022-08-21T08:44:44;10.77;;;6.13;;
23175;SDS011;19910;42.652;23.332;2022-08-21T08:47:14;11.63;;;5.63;;
23175;SDS011;19910;42.652;23.332;2022-08-21T08:49:46;8.60;;;5.63;;
23175;SDS011;19910;42.652;23.332;2022-08-21T08:52:20;9.35;;;5.20;;
23175;SDS011;19910;42.652;23.332;2022-08-21T08:54:51;9.00;;;5.68;;
23175;SDS011;19910;42.652;23.332;2022-08-21T08:57:27;7.18;;;5.00;;
23175;SDS011;19910;42.652;23.332;2022-08-21T08:59:56;9.40;;;5.18;;
23175;SDS011;19910;42.652;23.332;2022-08-21T09:02:27;6.72;;;4.60;;
23175;SDS011;19910;42.652;23.332;2022-08-21T09:04:54;7.20;;;5.03;;
23175;SDS011;19910;42.652;23.332;2022-08-21T09:07:24;13.45;;;5.20;;
23175;SDS011;19910;42.652;23.332;2022-08-21T09:10:05;6.30;;;4.75;;
23175;SDS011;19910;42.652;23.332;2022-08-21T09:12:40;6.60;;;4.40;;
23175;SDS011;19910;42.652;23.332;2022-08-21T09:15:17;8.40;;;4.35;;
23175;SDS011;19910;42.652;23.332;2022-08-21T09:17:55;8.52;;;4.28;;
23175;SDS011;19910;42.652;23.332;2022-08-21T09:20:36;7.80;;;4.45;;
23175;SDS011;19910;42.652;23.332;2022-08-21T09:23:10;5.78;;;4.25;;
23175;SDS011;19910;42.652;23.332;2022-08-21T09:25:50;8.63;;;4.45;;
23175;SDS011;19910;42.652;23.332;2022-08-21T09:28:25;7.32;;;4.22;;
23175;SDS011;19910;42.652;23.332;2022-08-21T09:30:54;6.32;;;4.13;;
23175;SDS011;19910;42.652;23.332;2022-08-21T09:33:24;6.55;;;4.15;;
23175;SDS011;19910;42.652;23.332;2022-08-21T09:35:51;8.98;;;4.40;;
23175;SDS011;19910;42.652;23.332;2022-08-21T09:38:27;7.63;;;3.90;;
23175;SDS011;19910;42.652;23.332;2022-08-21T09:40:58;8.45;;;4.28;;
23175;SDS011;19910;42.652;23.332;2022-08-21T09:43:28;7.60;;;3.90;;
23175;SDS011;19910;42.652;23.332;2022-08-21T09:46:03;6.38;;;3.88;;
23175;SDS011;19910;42.652;23.332;2022-08-21T09:48:39;5.85;;;4.22;;
23175;SDS011;19910;42.652;23.332;2022-08-21T09:51:09;8.18;;;4.05;;
23175;SDS011;19910;42.652;23.332;2022-08-21T09:53:38;7.15;;;4.20;;
23175;SDS011;19910;42.652;23.332;2022-08-21T09:56:16;5.70;;;4.13;;
23175;SDS011;19910;42.652;23.332;2022-08-21T09:59:11;6.30;;;4.05;;
23175;SDS011;19910;42.652;23.332;2022-08-21T10:01:42;6.05;;;4.03;;
23175;SDS011;19910;42.652;23.332;2022-08-21T10:04:12;8.52;;;4.60;;
23175;SDS011;19910;42.652;23.332;2022-08-21T10:06:39;7.57;;;4.07;;
23175;SDS011;19910;42.652;23.332;2022-08-21T10:09:08;7.32;;;4.32;;
23175;SDS011;19910;42.652;23.332;2022-08-21T10:11:40;6.65;;;4.18;;
23175;SDS011;19910;42.652;23.332;2022-08-21T10:14:14;9.45;;;4.57;;
23175;SDS011;19910;42.652;23.332;2022-08-21T10:16:52;9.50;;;4.32;;
23175;SDS011;19910;42.652;23.332;2022-08-21T10:19:32;5.57;;;3.85;;
23175;SDS011;19910;42.652;23.332;2022-08-21T10:22:09;7.85;;;4.15;;
23175;SDS011;19910;42.652;23.332;2022-08-21T10:24:48;5.15;;;3.90;;
23175;SDS011;19910;42.652;23.332;2022-08-21T10:27:22;5.82;;;4.10;;
23175;SDS011;19910;42.652;23.332;2022-08-21T10:29:59;6.40;;;4.38;;
23175;SDS011;19910;42.652;23.332;2022-08-21T10:32:40;7.40;;;3.95;;
23175;SDS011;19910;42.652;23.332;2022-08-21T10:35:26;7.40;;;4.72;;
23175;SDS011;19910;42.652;23.332;2022-08-21T10:38:10;9.05;;;4.07;;
23175;SDS011;19910;42.652;23.332;2022-08-21T10:41:01;6.18;;;4.22;;
23175;SDS011;19910;42.652;23.332;2022-08-21T10:43:38;6.53;;;3.80;;
23175;SDS011;19910;42.652;23.332;2022-08-21T10:46:21;5.32;;;3.70;;
23175;SDS011;19910;42.652;23.332;2022-08-21T10:49:03;5.80;;;3.97;;
23175;SDS011;19910;42.652;23.332;2022-08-21T10:51:42;6.97;;;4.20;;
23175;SDS011;19910;42.652;23.332;2022-08-21T10:54:22;7.53;;;4.45;;
23175;SDS011;19910;42.652;23.332;2022-08-21T10:57:00;5.88;;;4.30;;
23175;SDS011;19910;42.652;23.332;2022-08-21T10:59:31;5.40;;;3.88;;
23175;SDS011;19910;42.652;23.332;2022-08-21T11:02:08;6.72;;;4.00;;
23175;SDS011;19910;42.652;23.332;2022-08-21T11:04:44;8.10;;;4.88;;
23175;SDS011;19910;42.652;23.332;2022-08-21T11:07:18;7.72;;;3.97;;
23175;SDS011;19910;42.652;23.332;2022-08-21T11:09:49;4.05;;;3.50;;
23175;SDS011;19910;42.652;23.332;2022-08-21T11:12:19;7.47;;;4.00;;
23175;SDS011;19910;42.652;23.332;2022-08-21T11:14:51;7.55;;;4.15;;
23175;SDS011;19910;42.652;23.332;2022-08-21T11:17:24;6.15;;;4.10;;
23175;SDS011;19910;42.652;23.332;2022-08-21T11:19:59;4.53;;;3.67;;
23175;SDS011;19910;42.652;23.332;2022-08-21T11:22:36;6.50;;;3.78;;
23175;SDS011;19910;42.652;23.332;2022-08-21T11:25:07;7.55;;;3.83;;
23175;SDS011;19910;42.652;23.332;2022-08-21T11:27:41;5.13;;;3.65;;
23175;SDS011;19910;42.652;23.332;2022-08-21T11:30:11;5.25;;;3.40;;
23175;SDS011;19910;42.652;23.332;2022-08-21T11:35:32;3.83;;;3.42;;
23175;SDS011;19910;42.652;23.332;2022-08-21T11:38:13;3.92;;;3.22;;
23175;SDS011;19910;42.652;23.332;2022-08-21T11:41:03;5.85;;;3.20;;
23175;SDS011;19910;42.652;23.332;2022-08-21T11:43:40;5.57;;;3.75;;
23175;SDS011;19910;42.652;23.332;2022-08-21T11:46:20;7.32;;;3.42;;
23175;SDS011;19910;42.652;23.332;2022-08-21T11:49:00;6.93;;;3.80;;
23175;SDS011;19910;42.652;23.332;2022-08-21T11:51:44;6.15;;;3.45;;
23175;SDS011;19910;42.652;23.332;2022-08-21T11:54:19;5.40;;;3.45;;
23175;SDS011;19910;42.652;23.332;2022-08-21T11:56:51;4.95;;;3.53;;
23175;SDS011;19910;42.652;23.332;2022-08-21T11:59:22;6.03;;;4.72;;
23175;SDS011;19910;42.652;23.332;2022-08-21T12:01:53;5.32;;;4.20;;
23175;SDS011;19910;42.652;23.332;2022-08-21T12:04:22;5.40;;;3.60;;
23175;SDS011;19910;42.652;23.332;2022-08-21T12:06:55;5.00;;;3.85;;
23175;SDS011;19910;42.652;23.332;2022-08-21T12:09:30;5.57;;;3.50;;
23175;SDS011;19910;42.652;23.332;2022-08-21T12:12:02;5.30;;;3.83;;
23175;SDS011;19910;42.652;23.332;2022-08-21T12:14:42;6.57;;;3.70;;
23175;SDS011;19910;42.652;23.332;2022-08-21T12:17:17;8.25;;;3.85;;
23175;SDS011;19910;42.652;23.332;2022-08-21T12:19:56;5.32;;;3.40;;
23175;SDS011;19910;42.652;23.332;2022-08-21T12:22:30;5.50;;;3.53;;
23175;SDS011;19910;42.652;23.332;2022-08-21T12:25:05;4.88;;;3.03;;
23175;SDS011;19910;42.652;23.332;2022-08-21T12:27:41;4.63;;;3.50;;
23175;SDS011;19910;42.652;23.332;2022-08-21T12:30:20;6.25;;;3.75;;
23175;SDS011;19910;42.652;23.332;2022-08-21T12:32:54;6.55;;;4.05;;
23175;SDS011;19910;42.652;23.332;2022-08-21T12:35:25;6.18;;;3.50;;
23175;SDS011;19910;42.652;23.332;2022-08-21T12:37:59;5.97;;;3.80;;
23175;SDS011;19910;42.652;23.332;2022-08-21T12:40:37;5.80;;;3.90;;
23175;SDS011;19910;42.652;23.332;2022-08-21T12:43:11;5.25;;;3.50;;
23175;SDS011;19910;42.652;23.332;2022-08-21T12:45:42;5.20;;;4.50;;
23175;SDS011;19910;42.652;23.332;2022-08-21T12:48:11;18.38;;;8.13;;
23175;SDS011;19910;42.652;23.332;2022-08-21T12:50:45;5.78;;;3.75;;
23175;SDS011;19910;42.652;23.332;2022-08-21T12:53:21;4.88;;;3.92;;
23175;SDS011;19910;42.652;23.332;2022-08-21T12:55:57;7.50;;;4.20;;
23175;SDS011;19910;42.652;23.332;2022-08-21T12:58:29;6.43;;;4.20;;
23175;SDS011;19910;42.652;23.332;2022-08-21T13:00:59;8.63;;;4.45;;
23175;SDS011;19910;42.652;23.332;2022-08-21T13:03:28;8.88;;;4.50;;
23175;SDS011;19910;42.652;23.332;2022-08-21T13:05:56;6.75;;;3.78;;
23175;SDS011;19910;42.652;23.332;2022-08-21T13:08:25;7.10;;;3.85;;
23175;SDS011;19910;42.652;23.332;2022-08-21T13:10:58;8.38;;;4.47;;
23175;SDS011;19910;42.652;23.332;2022-08-21T13:13:29;6.90;;;3.58;;
23175;SDS011;19910;42.652;23.332;2022-08-21T13:15:57;5.97;;;3.40;;
23175;SDS011;19910;42.652;23.332;2022-08-21T13:18:27;8.05;;;3.50;;
23175;SDS011;19910;42.652;23.332;2022-08-21T13:21:03;5.38;;;2.85;;
23175;SDS011;19910;42.652;23.332;2022-08-21T13:23:32;6.72;;;3.30;;
23175;SDS011;19910;42.652;23.332;2022-08-21T13:26:00;5.90;;;3.50;;
23175;SDS011;19910;42.652;23.332;2022-08-21T13:28:33;5.78;;;3.13;;
23175;SDS011;19910;42.652;23.332;2022-08-21T13:31:05;5.45;;;3.80;;
23175;SDS011;19910;42.652;23.332;2022-08-21T13:33:34;5.30;;;3.70;;
23175;SDS011;19910;42.652;23.332;2022-08-21T13:36:02;5.90;;;3.90;;
23175;SDS011;19910;42.652;23.332;2022-08-21T13:38:34;6.25;;;4.00;;
23175;SDS011;19910;42.652;23.332;2022-08-21T13:41:04;5.20;;;4.50;;
23175;SDS011;19910;42.652;23.332;2022-08-21T13:43:35;5.43;;;3.95;;
23175;SDS011;19910;42.652;23.332;2022-08-21T13:46:10;3.83;;;2.97;;
23175;SDS011;19910;42.652;23.332;2022-08-21T13:48:39;6.82;;;3.95;;
23175;SDS011;19910;42.652;23.332;2022-08-21T13:51:08;5.03;;;2.92;;
23175;SDS011;19910;42.652;23.332;2022-08-21T13:53:44;6.70;;;2.90;;
23175;SDS011;19910;42.652;23.332;2022-08-21T13:56:23;8.82;;;3.25;;
23175;SDS011;19910;42.652;23.332;2022-08-21T13:58:54;9.00;;;3.88;;
23175;SDS011;19910;42.652;23.332;2022-08-21T14:01:23;8.80;;;4.25;;
23175;SDS011;19910;42.652;23.332;2022-08-21T14:03:55;5.85;;;4.10;;
23175;SDS011;19910;42.652;23.332;2022-08-21T14:06:27;3.95;;;2.58;;
23175;SDS011;19910;42.652;23.332;2022-08-21T14:08:59;6.13;;;3.85;;
23175;SDS011;19910;42.652;23.332;2022-08-21T14:11:34;7.38;;;4.22;;
23175;SDS011;19910;42.652;23.332;2022-08-21T14:14:04;6.47;;;3.92;;
23175;SDS011;19910;42.652;23.332;2022-08-21T14:16:43;6.75;;;4.25;;
23175;SDS011;19910;42.652;23.332;2022-08-21T14:19:17;6.93;;;3.60;;
23175;SDS011;19910;42.652;23.332;2022-08-21T14:21:46;4.53;;;2.85;;
23175;SDS011;19910;42.652;23.332;2022-08-21T14:24:14;6.18;;;3.97;;
23175;SDS011;19910;42.652;23.332;2022-08-21T14:26:54;5.78;;;3.75;;
23175;SDS011;19910;42.652;23.332;2022-08-21T14:29:24;5.05;;;4.35;;
23175;SDS011;19910;42.652;23.332;2022-08-21T14:31:53;7.78;;;4.20;;
23175;SDS011;19910;42.652;23.332;2022-08-21T14:34:34;6.60;;;3.60;;
23175;SDS011;19910;42.652;23.332;2022-08-21T14:37:03;7.78;;;4.07;;
23175;SDS011;19910;42.652;23.332;2022-08-21T14:39:30;4.63;;;3.85;;
23175;SDS011;19910;42.652;23.332;2022-08-21T14:41:58;5.05;;;4.22;;
23175;SDS011;19910;42.652;23.332;2022-08-21T14:44:26;7.68;;;3.88;;
23175;SDS011;19910;42.652;23.332;2022-08-21T14:46:53;4.47;;;3.65;;
23175;SDS011;19910;42.652;23.332;2022-08-21T14:49:21;5.60;;;4.38;;
23175;SDS011;19910;42.652;23.332;2022-08-21T14:51:48;6.72;;;4.03;;
23175;SDS011;19910;42.652;23.332;2022-08-21T14:54:20;5.60;;;4.40;;
23175;SDS011;19910;42.652;23.332;2022-08-21T14:56:47;6.25;;;4.10;;